createdAt,value
2023-04-19T00:01:26.756Z,6.90
2023-04-19T00:03:56.821Z,7.60
2023-04-19T00:06:24.772Z,6.93
2023-04-19T00:08:51.908Z,7.93
2023-04-19T00:11:19.937Z,7.47
2023-04-19T00:13:49.340Z,7.20
2023-04-19T00:16:17.511Z,7.67
2023-04-19T00:18:46.801Z,7.97
2023-04-19T00:21:18.102Z,6.93
2023-04-19T00:23:45.903Z,7.43
2023-04-19T00:26:15.717Z,7.70
2023-04-19T00:28:42.768Z,7.10
2023-04-19T00:31:09.660Z,7.23
2023-04-19T00:33:37.686Z,7.70
2023-04-19T00:36:04.681Z,7.40
2023-04-19T00:38:31.718Z,6.97
2023-04-19T00:40:59.499Z,6.27
2023-04-19T00:43:29.446Z,6.53
2023-04-19T00:45:57.676Z,6.67
2023-04-19T00:48:27.766Z,5.57
2023-04-19T00:50:56.116Z,6.13
2023-04-19T00:53:25.940Z,5.80
2023-04-19T00:55:54.938Z,5.40
2023-04-19T00:58:21.866Z,5.27
2023-04-19T01:00:48.714Z,5.60
2023-04-19T01:03:17.049Z,5.47
2023-04-19T01:05:44.154Z,5.30
2023-04-19T01:08:11.091Z,5.67
2023-04-19T01:10:40.054Z,5.23
2023-04-19T01:13:09.003Z,5.27
2023-04-19T01:15:36.664Z,5.80
2023-04-19T01:18:09.787Z,5.67
2023-04-19T01:20:36.568Z,5.43
2023-04-19T01:23:03.287Z,5.33
2023-04-19T01:25:30.316Z,5.50
2023-04-19T01:27:57.268Z,5.60
2023-04-19T01:30:27.347Z,6.30
2023-04-19T01:32:57.402Z,5.70
2023-04-19T01:35:31.255Z,6.43
2023-04-19T01:37:58.096Z,5.87
2023-04-19T01:40:30.262Z,5.77
2023-04-19T01:42:57.313Z,6.10
2023-04-19T01:45:24.088Z,6.03
2023-04-19T01:47:51.760Z,6.33
2023-04-19T01:50:30.045Z,6.20
2023-04-19T01:53:02.830Z,5.70
2023-04-19T01:55:32.687Z,5.90
2023-04-19T01:58:05.312Z,6.20
2023-04-19T02:00:32.223Z,6.37
2023-04-19T02:02:59.191Z,6.33
2023-04-19T02:05:26.199Z,6.07
2023-04-19T02:07:53.098Z,6.77
2023-04-19T02:10:23.018Z,6.17
2023-04-19T02:12:55.737Z,6.27
2023-04-19T02:15:28.682Z,7.73
2023-04-19T02:18:01.419Z,7.17
2023-04-19T02:20:35.609Z,7.13
2023-04-19T02:23:02.348Z,7.53
2023-04-19T02:25:31.385Z,6.97
2023-04-19T02:28:00.288Z,7.83
2023-04-19T02:30:29.334Z,7.57
2023-04-19T02:32:56.106Z,8.13
2023-04-19T02:35:23.081Z,7.37
2023-04-19T02:37:50.234Z,7.43
2023-04-19T02:40:17.390Z,7.33
2023-04-19T02:42:44.468Z,7.30
2023-04-19T02:45:13.352Z,7.30
2023-04-19T02:47:43.349Z,6.97
2023-04-19T02:50:11.893Z,7.40
2023-04-19T02:52:45.896Z,7.03
2023-04-19T02:55:12.746Z,7.50
2023-04-19T02:57:39.636Z,7.80
2023-04-19T03:00:08.954Z,6.93
2023-04-19T03:02:36.011Z,6.83
2023-04-19T03:05:04.067Z,7.07
2023-04-19T03:07:30.964Z,7.37
2023-04-19T03:09:58.729Z,6.67
2023-04-19T03:12:32.606Z,6.93
2023-04-19T03:15:02.685Z,7.07
2023-04-19T03:17:30.664Z,7.47
2023-04-19T03:19:59.086Z,7.70
2023-04-19T03:22:25.884Z,7.27
2023-04-19T03:24:53.693Z,7.37
2023-04-19T03:27:20.719Z,6.83
2023-04-19T03:29:48.991Z,8.30
2023-04-19T03:32:16.055Z,7.30
2023-04-19T03:34:46.193Z,7.50
2023-04-19T03:37:16.226Z,7.47
2023-04-19T03:39:43.955Z,7.70
2023-04-19T03:42:10.781Z,8.53
2023-04-19T03:44:38.584Z,7.47
2023-04-19T03:47:13.456Z,7.53
2023-04-19T03:49:42.374Z,6.93
2023-04-19T03:52:12.362Z,6.67
2023-04-19T03:54:40.490Z,7.30
2023-04-19T03:57:09.464Z,7.40
2023-04-19T03:59:36.244Z,7.50
2023-04-19T04:02:03.188Z,7.27
2023-04-19T04:04:33.430Z,8.03
2023-04-19T04:07:07.536Z,7.47
2023-04-19T04:09:34.474Z,8.30
2023-04-19T04:12:18.720Z,7.67
2023-04-19T04:14:55.862Z,7.60
2023-04-19T04:17:24.827Z,8.67
2023-04-19T04:19:54.991Z,7.17
2023-04-19T04:22:21.721Z,7.20
2023-04-19T04:24:49.201Z,7.93
2023-04-19T04:27:21.308Z,7.60
2023-04-19T04:29:49.633Z,7.50
2023-04-19T04:32:18.179Z,7.80
2023-04-19T04:34:45.624Z,7.77
2023-04-19T04:37:12.556Z,8.33
2023-04-19T04:39:40.010Z,8.10
2023-04-19T04:42:10.807Z,8.03
2023-04-19T04:44:45.034Z,7.80
2023-04-19T04:47:18.127Z,8.03
2023-04-19T04:49:44.998Z,7.97
2023-04-19T04:52:12.015Z,8.47
2023-04-19T04:54:52.004Z,7.87
2023-04-19T04:57:18.745Z,7.80
2023-04-19T04:59:48.041Z,7.80
2023-04-19T05:02:15.812Z,8.00
2023-04-19T05:04:43.484Z,8.27
2023-04-19T05:07:12.793Z,7.17
2023-04-19T05:09:39.712Z,6.83
2023-04-19T05:12:14.285Z,7.90
2023-04-19T05:14:42.292Z,7.80
2023-04-19T05:17:15.060Z,7.50
2023-04-19T05:19:43.079Z,7.47
2023-04-19T05:22:09.826Z,7.80
2023-04-19T05:24:37.828Z,7.17
2023-04-19T05:27:49.157Z,8.23
2023-04-19T05:30:21.951Z,8.87
2023-04-19T05:32:49.045Z,7.90
2023-04-19T05:35:15.960Z,8.23
2023-04-19T05:37:43.919Z,8.23
2023-04-19T05:40:16.872Z,7.77
2023-04-19T05:42:49.783Z,8.63
2023-04-19T05:45:18.525Z,7.43
2023-04-19T05:47:51.165Z,7.03
2023-04-19T05:50:21.151Z,7.17
2023-04-19T05:52:53.144Z,7.60
2023-04-19T05:55:20.185Z,7.23
2023-04-19T05:57:47.178Z,8.40
2023-04-19T06:00:20.010Z,7.70
2023-04-19T06:02:47.251Z,8.30
2023-04-19T06:05:14.420Z,8.47
2023-04-19T06:07:47.176Z,8.70
2023-04-19T06:10:21.390Z,8.47
2023-04-19T06:12:54.728Z,8.43
2023-04-19T06:15:25.986Z,7.30
2023-04-19T06:17:52.757Z,7.17
2023-04-19T06:20:19.476Z,8.43
2023-04-19T06:22:48.887Z,7.37
2023-04-19T06:25:15.858Z,7.80
2023-04-19T06:27:46.708Z,8.20
2023-04-19T06:30:15.761Z,7.53
2023-04-19T06:32:42.716Z,7.60
2023-04-19T06:35:09.950Z,8.10
2023-04-19T06:37:36.789Z,6.83
2023-04-19T06:40:05.428Z,7.27
2023-04-19T06:42:33.267Z,6.80
2023-04-19T06:45:00.027Z,7.83
2023-04-19T06:47:27.250Z,6.80
2023-04-19T06:49:55.287Z,7.40
2023-04-19T06:52:22.388Z,7.53
2023-04-19T06:54:50.278Z,8.80
2023-04-19T06:57:18.029Z,9.93
2023-04-19T06:59:46.122Z,8.70
2023-04-19T07:02:13.045Z,8.60
2023-04-19T07:04:40.193Z,8.67
2023-04-19T07:07:07.458Z,9.37
2023-04-19T07:09:35.446Z,8.10
2023-04-19T07:12:04.337Z,8.53
2023-04-19T07:14:31.197Z,8.17
2023-04-19T07:16:59.194Z,8.13
2023-04-19T07:19:26.318Z,8.53
2023-04-19T07:21:53.038Z,8.67
2023-04-19T07:24:21.927Z,8.23
2023-04-19T07:26:50.006Z,7.40
2023-04-19T07:29:19.064Z,7.97
2023-04-19T07:31:47.112Z,7.53
2023-04-19T07:34:15.398Z,8.23
2023-04-19T07:36:43.005Z,7.73
2023-04-19T07:39:10.003Z,8.60
2023-04-19T07:41:36.853Z,8.63
2023-04-19T07:44:03.725Z,7.40
2023-04-19T07:46:31.583Z,7.90
2023-04-19T07:48:59.519Z,8.10
2023-04-19T07:51:26.544Z,8.33
2023-04-19T07:53:59.372Z,7.43
2023-04-19T07:56:26.819Z,9.00
2023-04-19T07:59:04.460Z,9.23
2023-04-19T08:01:37.123Z,8.30
2023-04-19T08:04:05.157Z,8.33
2023-04-19T08:06:33.145Z,8.67
2023-04-19T08:08:59.878Z,9.30
2023-04-19T08:11:28.905Z,8.53
2023-04-19T08:14:08.813Z,9.13
2023-04-19T08:19:29.996Z,9.97
2023-04-19T08:21:57.295Z,9.70
2023-04-19T08:24:26.874Z,10.03
2023-04-19T08:26:54.253Z,10.13
2023-04-19T08:29:22.232Z,11.50
2023-04-19T08:31:49.079Z,11.93
2023-04-19T08:34:15.904Z,11.03
2023-04-19T08:36:51.795Z,11.50
2023-04-19T08:39:32.802Z,11.60
2023-04-19T08:42:18.183Z,11.67
2023-04-19T08:45:23.556Z,11.33
2023-04-19T08:47:58.887Z,12.33
2023-04-19T08:50:33.633Z,12.23
2023-04-19T08:55:47.544Z,11.90
2023-04-19T08:58:33.941Z,11.53
2023-04-19T09:01:22.855Z,12.40
2023-04-19T09:04:09.583Z,12.20
2023-04-19T09:06:44.615Z,12.93
2023-04-19T09:09:33.106Z,12.77
2023-04-19T09:12:02.305Z,12.30
2023-04-19T09:14:29.792Z,12.63
2023-04-19T09:17:16.144Z,12.80
2023-04-19T09:19:47.156Z,13.73
2023-04-19T09:22:14.914Z,12.57
2023-04-19T09:27:15.047Z,13.43
2023-04-19T09:29:41.905Z,14.60
2023-04-19T09:32:08.698Z,13.27
2023-04-19T09:34:35.507Z,13.07
2023-04-19T09:37:22.846Z,13.40
2023-04-19T09:39:59.711Z,13.33
2023-04-19T09:48:10.694Z,14.37
2023-04-19T09:51:04.312Z,14.18
2023-04-19T09:53:40.935Z,13.67
2023-04-19T09:56:12.797Z,14.25
2023-04-19T09:58:50.115Z,14.35
2023-04-19T10:01:20.417Z,13.52
2023-04-19T10:03:51.298Z,14.93
2023-04-19T10:06:42.405Z,14.40
2023-04-19T10:09:21.538Z,14.25
2023-04-19T10:11:56.543Z,14.63
2023-04-19T10:14:36.070Z,14.37
2023-04-19T10:17:06.531Z,13.95
2023-04-19T10:19:37.559Z,13.75
2023-04-19T10:22:08.021Z,14.88
2023-04-19T10:24:34.900Z,15.18
2023-04-19T10:27:09.030Z,15.32
2023-04-19T10:29:58.549Z,16.77
2023-04-19T10:32:46.210Z,13.52
2023-04-19T10:35:19.851Z,17.50
2023-04-19T10:38:06.922Z,14.95
2023-04-19T10:40:57.750Z,13.38
2023-04-19T10:43:25.637Z,14.85
2023-04-19T10:45:52.847Z,14.27
2023-04-19T10:48:33.558Z,14.80
2023-04-19T10:51:04.701Z,13.73
2023-04-19T10:53:47.931Z,12.63
2023-04-19T10:56:17.724Z,12.50
2023-04-19T10:59:05.346Z,12.80
2023-04-19T11:01:35.455Z,13.23
2023-04-19T11:04:02.849Z,12.98
2023-04-19T11:06:31.760Z,12.63
2023-04-19T11:09:02.734Z,14.15
2023-04-19T11:11:33.002Z,12.02
2023-04-19T11:14:02.919Z,12.30
2023-04-19T11:16:42.480Z,11.23
2023-04-19T11:19:19.616Z,10.83
2023-04-19T11:21:49.700Z,11.50
2023-04-19T11:24:18.919Z,11.05
2023-04-19T11:26:46.678Z,11.20
2023-04-19T11:29:15.814Z,11.27
2023-04-19T11:31:46.903Z,11.07
2023-04-19T11:34:13.989Z,12.17
2023-04-19T11:36:56.339Z,11.50
2023-04-19T11:39:23.292Z,11.27
2023-04-19T11:41:58.611Z,11.40
2023-04-19T11:44:26.461Z,12.53
2023-04-19T11:47:04.058Z,10.97
2023-04-19T11:49:32.947Z,12.23
2023-04-19T11:52:06.118Z,12.80
2023-04-19T11:54:40.049Z,10.77
2023-04-19T11:57:08.483Z,11.32
2023-04-19T11:59:39.069Z,10.98
2023-04-19T12:02:10.933Z,11.00
2023-04-19T12:04:39.053Z,11.20
2023-04-19T12:07:07.095Z,10.77
2023-04-19T12:09:39.840Z,8.75
2023-04-19T12:12:06.875Z,9.43
2023-04-19T12:14:35.852Z,9.93
2023-04-19T12:17:14.477Z,9.57
2023-04-19T12:19:48.020Z,9.68
2023-04-19T12:22:16.735Z,9.73
2023-04-19T12:24:43.893Z,11.10
2023-04-19T12:27:11.759Z,10.40
2023-04-19T12:29:39.187Z,10.10
2023-04-19T12:32:06.740Z,10.65
2023-04-19T12:34:33.848Z,9.63
2023-04-19T12:37:01.442Z,10.10
2023-04-19T12:39:31.444Z,9.65
2023-04-19T12:41:58.293Z,10.18
2023-04-19T12:44:25.133Z,9.75
2023-04-19T12:46:57.315Z,10.25
2023-04-19T12:49:24.596Z,9.27
2023-04-19T12:51:51.474Z,9.90
2023-04-19T12:54:18.321Z,9.95
2023-04-19T12:56:45.329Z,10.57
2023-04-19T12:59:12.203Z,10.10
2023-04-19T13:01:39.204Z,9.50
2023-04-19T13:04:11.862Z,9.27
2023-04-19T13:06:39.862Z,9.20
2023-04-19T13:09:14.163Z,9.07
2023-04-19T13:11:44.890Z,10.50
2023-04-19T13:14:11.957Z,9.77
2023-04-19T13:16:39.096Z,9.30
2023-04-19T13:19:06.141Z,9.68
2023-04-19T13:21:33.889Z,9.10
2023-04-19T13:24:00.760Z,9.55
2023-04-19T13:26:27.669Z,10.23
2023-04-19T13:28:54.728Z,9.02
2023-04-19T13:31:21.676Z,10.60
2023-04-19T13:33:48.673Z,10.35
2023-04-19T13:36:15.630Z,9.27
2023-04-19T13:38:42.367Z,9.85
2023-04-19T13:41:09.654Z,10.35
2023-04-19T13:43:36.474Z,10.23
2023-04-19T13:46:04.819Z,10.35
2023-04-19T13:48:31.550Z,10.52
2023-04-19T13:50:59.550Z,10.57
2023-04-19T13:53:27.527Z,10.40
2023-04-19T13:55:54.363Z,10.98
2023-04-19T13:58:21.343Z,10.23
2023-04-19T14:00:48.436Z,11.75
2023-04-19T14:03:15.527Z,10.80
2023-04-19T14:05:42.463Z,10.20
2023-04-19T14:08:09.312Z,10.13
2023-04-19T14:10:36.694Z,9.18
2023-04-19T14:13:03.507Z,10.23
2023-04-19T14:15:33.431Z,10.23
2023-04-19T14:18:00.670Z,9.35
2023-04-19T14:20:27.426Z,10.43
2023-04-19T14:22:56.136Z,9.93
2023-04-19T14:25:23.049Z,8.95
2023-04-19T14:27:49.812Z,9.70
2023-04-19T14:30:16.577Z,9.45
2023-04-19T14:32:43.469Z,8.70
2023-04-19T14:35:13.173Z,8.82
2023-04-19T14:37:39.918Z,9.77
2023-04-19T14:40:07.477Z,9.57
2023-04-19T14:42:34.155Z,9.43
2023-04-19T14:45:00.832Z,9.05
2023-04-19T14:47:27.556Z,9.98
2023-04-19T14:49:54.548Z,8.77
2023-04-19T14:52:21.399Z,9.43
2023-04-19T14:54:48.268Z,11.93
2023-04-19T14:57:15.023Z,8.85
2023-04-19T14:59:41.791Z,10.68
2023-04-19T15:02:10.644Z,11.55
2023-04-19T15:04:40.606Z,9.55
2023-04-19T15:07:07.915Z,9.23
2023-04-19T15:09:34.665Z,9.73
2023-04-19T15:12:01.849Z,8.55
2023-04-19T15:14:28.623Z,8.07
2023-04-19T15:16:55.564Z,8.57
2023-04-19T15:19:22.355Z,7.95
2023-04-19T15:21:49.070Z,7.88
2023-04-19T15:24:15.847Z,7.30
2023-04-19T15:26:44.276Z,7.03
2023-04-19T15:29:11.341Z,7.78
2023-04-19T15:31:38.305Z,6.40
2023-04-19T15:34:05.385Z,6.78
2023-04-19T15:36:35.563Z,6.05
2023-04-19T15:39:05.507Z,6.78
2023-04-19T15:41:32.388Z,6.13
2023-04-19T15:44:01.537Z,5.38
2023-04-19T15:46:28.364Z,6.97
2023-04-19T15:48:56.253Z,6.70
2023-04-19T15:51:24.035Z,6.68
2023-04-19T15:53:51.174Z,7.18
2023-04-19T15:56:17.856Z,7.07
2023-04-19T15:58:44.640Z,6.93
2023-04-19T16:01:13.111Z,6.82
2023-04-19T16:03:41.326Z,7.63
2023-04-19T16:06:08.310Z,7.65
2023-04-19T16:08:35.305Z,6.68
2023-04-19T16:11:02.200Z,6.97
2023-04-19T16:13:31.273Z,7.05
2023-04-19T16:15:58.292Z,6.82
2023-04-19T16:18:26.198Z,8.25
2023-04-19T16:20:54.262Z,7.90
2023-04-19T16:23:21.221Z,7.72
2023-04-19T16:25:48.132Z,7.47
2023-04-19T16:28:14.894Z,7.57
2023-04-19T16:30:41.689Z,7.93
2023-04-19T16:33:09.779Z,7.95
2023-04-19T16:35:36.559Z,7.97
2023-04-19T16:38:04.497Z,9.10
2023-04-19T16:40:31.220Z,7.90
2023-04-19T16:42:57.976Z,9.18
2023-04-19T16:45:24.836Z,9.63
2023-04-19T16:47:52.058Z,9.65
2023-04-19T16:50:19.181Z,11.05
2023-04-19T16:52:46.204Z,10.25
2023-04-19T16:55:14.387Z,10.48
2023-04-19T16:57:41.118Z,8.27
2023-04-19T17:00:09.760Z,8.65
2023-04-19T17:02:37.182Z,8.32
2023-04-19T17:05:04.387Z,8.82
2023-04-19T17:07:31.202Z,9.98
2023-04-19T17:09:58.987Z,11.23
2023-04-19T17:12:25.750Z,11.98
2023-04-19T17:14:52.468Z,11.32
2023-04-19T17:17:20.137Z,11.48
2023-04-19T17:19:47.146Z,12.82
2023-04-19T17:22:15.241Z,13.65
2023-04-19T17:24:42.381Z,9.85
2023-04-19T17:27:09.377Z,9.27
2023-04-19T17:29:36.698Z,8.20
2023-04-19T17:32:03.982Z,8.73
2023-04-19T17:34:34.809Z,9.02
2023-04-19T17:37:03.418Z,10.27
2023-04-19T17:39:30.217Z,10.07
2023-04-19T17:41:56.991Z,8.90
2023-04-19T17:44:23.894Z,9.27
2023-04-19T17:46:50.779Z,8.40
2023-04-19T17:49:20.016Z,9.10
2023-04-19T17:51:47.462Z,8.95
2023-04-19T17:54:14.941Z,8.87
2023-04-19T17:56:41.770Z,10.10
2023-04-19T17:59:08.708Z,10.45
2023-04-19T18:01:35.738Z,10.82
2023-04-19T18:04:03.534Z,9.25
2023-04-19T18:06:31.751Z,9.80
2023-04-19T18:08:58.788Z,11.40
2023-04-19T18:11:28.164Z,10.63
2023-04-19T18:13:55.885Z,10.30
2023-04-19T18:16:22.826Z,9.97
2023-04-19T18:18:49.575Z,10.48
2023-04-19T18:21:17.082Z,10.93
2023-04-19T18:23:43.997Z,11.70
2023-04-19T18:26:10.831Z,11.73
2023-04-19T18:28:38.834Z,11.13
2023-04-19T18:31:07.420Z,12.30
2023-04-19T18:33:34.377Z,12.73
2023-04-19T18:36:01.221Z,11.60
2023-04-19T18:38:28.077Z,10.20
2023-04-19T18:40:54.793Z,11.80
2023-04-19T18:43:21.512Z,10.43
2023-04-19T18:45:55.337Z,10.50
2023-04-19T18:48:27.846Z,10.10
2023-04-19T18:50:55.268Z,11.30
2023-04-19T18:53:22.043Z,12.18
2023-04-19T18:55:48.804Z,11.63
2023-04-19T18:58:15.605Z,10.87
2023-04-19T19:00:42.342Z,12.07
2023-04-19T19:03:21.464Z,12.40
2023-04-19T19:05:55.953Z,11.63
2023-04-19T19:08:22.777Z,12.07
2023-04-19T19:11:14.228Z,14.27
2023-04-19T19:13:36.561Z,32.53
2023-04-19T19:16:05.618Z,30.30
2023-04-19T19:18:32.673Z,56.43
2023-04-19T19:21:03.273Z,59.23
2023-04-19T19:23:35.736Z,53.70
2023-04-19T19:26:06.253Z,39.20
2023-04-19T19:28:32.945Z,38.77
2023-04-19T19:30:59.698Z,27.63
2023-04-19T19:33:28.743Z,39.13
2023-04-19T19:35:55.776Z,20.77
2023-04-19T19:38:22.495Z,18.47
2023-04-19T19:43:18.907Z,42.20
2023-04-19T19:45:45.985Z,40.00
2023-04-19T19:48:12.803Z,24.63
2023-04-19T19:51:07.321Z,35.80
2023-04-19T19:53:26.306Z,43.23
2023-04-19T19:55:53.216Z,100.77
2023-04-19T19:58:42.938Z,54.27
2023-04-19T20:01:07.384Z,38.30
2023-04-19T20:03:37.586Z,40.23
2023-04-19T20:06:35.682Z,47.80
2023-04-19T20:08:56.253Z,36.00
2023-04-19T20:11:23.577Z,28.70
2023-04-19T20:13:50.721Z,20.90
2023-04-19T20:16:21.108Z,20.80
2023-04-19T20:18:49.324Z,21.73
2023-04-19T20:21:17.890Z,23.17
2023-04-19T20:23:44.649Z,27.37
2023-04-19T20:26:11.370Z,27.37
2023-04-19T20:28:38.395Z,29.10
2023-04-19T20:31:05.186Z,35.57
2023-04-19T20:33:31.951Z,28.97
2023-04-19T20:36:00.643Z,34.93
2023-04-19T20:38:27.453Z,31.37
2023-04-19T20:40:54.846Z,28.17
2023-04-19T20:43:21.883Z,27.17
2023-04-19T20:45:48.611Z,25.13
2023-04-19T20:48:15.482Z,26.10
2023-04-19T20:50:42.701Z,28.03
2023-04-19T20:53:09.565Z,27.87
2023-04-19T20:55:38.200Z,22.33
2023-04-19T20:58:04.980Z,24.07
2023-04-19T21:00:31.747Z,21.17
2023-04-19T21:02:58.597Z,19.37
2023-04-19T21:05:25.503Z,27.57
2023-04-19T21:07:52.354Z,20.67
2023-04-19T21:10:19.262Z,17.00
2023-04-19T21:12:46.078Z,16.13
2023-04-19T21:15:12.838Z,21.23
2023-04-19T21:17:39.904Z,19.37
2023-04-19T21:20:13.402Z,17.53
2023-04-19T21:22:44.699Z,19.07
2023-04-19T21:25:14.817Z,20.03
2023-04-19T21:27:42.041Z,18.50
2023-04-19T21:30:10.386Z,18.67
2023-04-19T21:32:37.181Z,17.73
2023-04-19T21:35:04.455Z,17.43
2023-04-19T21:37:31.314Z,16.37
2023-04-19T21:39:58.147Z,19.60
2023-04-19T21:42:25.112Z,21.03
2023-04-19T21:44:51.852Z,21.43
2023-04-19T21:47:18.784Z,20.40
2023-04-19T21:49:47.073Z,20.20
2023-04-19T21:52:13.801Z,19.07
2023-04-19T21:54:40.583Z,18.70
2023-04-19T21:57:07.658Z,19.87
2023-04-19T21:59:38.611Z,20.87
2023-04-19T22:02:08.827Z,20.73
2023-04-19T22:04:39.567Z,20.90
2023-04-19T22:07:07.707Z,20.93
2023-04-19T22:09:34.495Z,21.17
2023-04-19T22:12:03.706Z,20.17
2023-04-19T22:14:30.858Z,20.13
2023-04-19T22:17:02.674Z,20.47
2023-04-19T22:19:31.635Z,18.93
2023-04-19T22:22:01.451Z,19.67
2023-04-19T22:24:29.341Z,20.40
2023-04-19T22:26:57.251Z,21.33
2023-04-19T22:29:24.095Z,20.30
2023-04-19T22:31:52.130Z,18.13
2023-04-19T22:34:21.294Z,19.60
2023-04-19T22:36:49.112Z,19.37
2023-04-19T22:39:16.314Z,16.43
2023-04-19T22:41:44.848Z,17.30
2023-04-19T22:44:11.866Z,17.03
2023-04-19T22:46:39.060Z,17.50
2023-04-19T22:49:06.258Z,18.27
2023-04-19T22:51:45.950Z,17.70
2023-04-19T22:54:12.832Z,18.37
2023-04-19T22:56:39.686Z,17.47
2023-04-19T22:59:08.729Z,17.07
2023-04-19T23:01:38.568Z,16.83
2023-04-19T23:04:05.789Z,17.17
2023-04-19T23:06:38.789Z,17.37
2023-04-19T23:09:05.692Z,16.77
2023-04-19T23:11:34.881Z,16.27
2023-04-19T23:14:01.950Z,15.90
2023-04-19T23:16:29.867Z,15.73
2023-04-19T23:18:56.784Z,16.53
2023-04-19T23:21:24.929Z,17.40
2023-04-19T23:23:51.976Z,16.33
2023-04-19T23:26:18.800Z,17.23
2023-04-19T23:28:45.839Z,15.80
2023-04-19T23:31:12.890Z,16.83
2023-04-19T23:33:39.901Z,15.80
2023-04-19T23:36:12.410Z,16.27
2023-04-19T23:38:40.354Z,16.77
2023-04-19T23:41:12.055Z,14.47
2023-04-19T23:43:39.083Z,15.27
2023-04-19T23:46:06.800Z,15.37
2023-04-19T23:48:35.218Z,15.63
2023-04-19T23:51:02.164Z,15.37
2023-04-19T23:53:29.143Z,15.83
2023-04-19T23:55:56.072Z,14.53
2023-04-19T23:58:25.040Z,14.53
